»·PEaware :: JBU418 KASE-KJAC

JBU418 :: KASE-KJAC

FLIGHT INFORMATION

Flight Status: Arrived
Operator:
JetBlue Airways
More flights by this operator :: More flights under this callsign
Pilot: Ryan L. (9775)
Aircraft: AIRBUS A320
(A320)
More flights by this aircraft type
Origin: KASE Aspen-Pitkin Co/Sardy
United States
Destination: KJAC Jackson Hole
United States
More flights between these airports :: More routes between these airports
Route: LINDZ9 EKR OCS BPI DNW
File this flight plan on PilotEdge
Remarks: RNAV Y (RNP) RWY19
Altitude:
(Current/Filed)
30,000ft
Speed:
(Current/Filed)
450kts
Departed: 09-Jan-20 07:05 PM
Arrived: 09-Jan-20 08:03 PM
Distance/Time
Traveled:
315nm/0:58
Distance/Time
To Go:
Arrived

Flight Plot

Page will automatically refresh every two minutes.

Flight plan parsing failed; only flown route is shown


Map Options




Map Legend


Flown Route
Filed Route
Departure Airport
Arrival Airport
Navaid (VOR, NDB)
Fix

Horizontal Profiles

Position Reports

Time Latitude Longitude Heading Altitude Ground
Speed
09-Jan-20 18:34 39.218551 -106.864165 248 7827ft 0kts
09-Jan-20 18:35 39.218551 -106.864165 248 7827ft 0kts
09-Jan-20 18:36 39.218551 -106.864165 248 7827ft 0kts
09-Jan-20 18:37 39.218551 -106.864165 248 7827ft 0kts
09-Jan-20 18:38 39.218551 -106.864165 248 7827ft 0kts
09-Jan-20 18:39 39.218551 -106.864165 248 7827ft 0kts
09-Jan-20 18:40 39.218551 -106.864165 248 7827ft 0kts
09-Jan-20 18:41 39.218551 -106.864165 248 7827ft 0kts
09-Jan-20 18:42 39.218551 -106.864165 248 7827ft 0kts
09-Jan-20 18:43 39.218551 -106.864165 248 7827ft 0kts
09-Jan-20 18:44 39.218551 -106.864165 248 7827ft 0kts
09-Jan-20 18:45 39.218551 -106.864165 248 7827ft 0kts
09-Jan-20 18:46 39.218551 -106.864165 248 7827ft 0kts
09-Jan-20 18:47 39.218551 -106.864165 248 7827ft 0kts
09-Jan-20 18:48 39.218551 -106.864165 248 7827ft 0kts
09-Jan-20 18:49 39.218551 -106.864165 248 7827ft 0kts
09-Jan-20 18:49 39.218551 -106.864165 248 7827ft 0kts
09-Jan-20 18:50 39.218551 -106.864165 248 7827ft 0kts
09-Jan-20 18:52 39.218551 -106.864165 248 7827ft 0kts
09-Jan-20 18:53 39.218551 -106.864165 248 7827ft 0kts
09-Jan-20 18:53 39.218551 -106.864165 248 7827ft 0kts
09-Jan-20 18:55 39.218551 -106.864165 248 7827ft 0kts
09-Jan-20 18:55 39.218551 -106.864165 248 7827ft 0kts
09-Jan-20 18:56 39.218349 -106.864820 248 7827ft 0kts
09-Jan-20 18:58 39.216436 -106.864454 159 7827ft 11kts
09-Jan-20 18:58 39.213626 -106.863106 159 7827ft 12kts
09-Jan-20 18:59 39.212523 -106.862671 201 7827ft 1kts
09-Jan-20 19:00 39.212523 -106.862671 201 7827ft 1kts
09-Jan-20 19:01 39.212523 -106.862671 201 7827ft 1kts
09-Jan-20 19:02 39.212510 -106.862678 201 7827ft 0kts
09-Jan-20 19:03 39.212193 -106.863522 263 7827ft 5kts
09-Jan-20 19:04 39.223000 -106.868754 340 7828ft 151kts
09-Jan-20 19:05 39.264901 -106.893669 291 10186ft 179kts
09-Jan-20 19:06 39.281261 -106.970772 283 11435ft 264kts
09-Jan-20 19:07 39.322595 -107.062391 310 12781ft 338kts
09-Jan-20 19:08 39.380843 -107.163936 281 14569ft 365kts
09-Jan-20 19:09 39.364101 -107.294854 252 16471ft 378kts
09-Jan-20 19:10 39.336474 -107.426963 255 18407ft 385kts
09-Jan-20 19:11 39.322876 -107.564905 282 20204ft 396kts
09-Jan-20 19:12 39.389375 -107.663323 334 21584ft 427kts
09-Jan-20 19:13 39.510652 -107.712505 337 22995ft 439kts
09-Jan-20 19:14 39.629784 -107.758072 338 24237ft 449kts
09-Jan-20 19:15 39.751371 -107.804182 338 25366ft 458kts
09-Jan-20 19:16 39.875062 -107.851319 337 26403ft 467kts
09-Jan-20 19:17 40.001318 -107.899602 337 27364ft 475kts
09-Jan-20 19:18 40.117127 -107.959598 325 28373ft 467kts
09-Jan-20 19:19 40.233216 -108.040938 325 29587ft 464kts
09-Jan-20 19:20 40.346935 -108.120859 325 29966ft 461kts
09-Jan-20 19:21 40.460198 -108.200777 325 29973ft 461kts
09-Jan-20 19:22 40.573330 -108.280867 325 29979ft 459kts
09-Jan-20 19:23 40.685771 -108.360813 326 29972ft 458kts
09-Jan-20 19:24 40.797894 -108.440857 326 29948ft 456kts
09-Jan-20 19:25 40.908386 -108.520017 326 29944ft 455kts
09-Jan-20 19:26 41.020361 -108.600566 326 29948ft 454kts
09-Jan-20 19:27 41.120613 -108.672896 326 29951ft 453kts
09-Jan-20 19:28 41.230059 -108.752215 326 29951ft 452kts
09-Jan-20 19:29 41.339737 -108.831986 326 29939ft 450kts
09-Jan-20 19:30 41.449687 -108.912274 326 29920ft 449kts
09-Jan-20 19:31 41.559430 -108.992714 326 29920ft 447kts
09-Jan-20 19:32 41.659317 -109.090298 317 29926ft 441kts
09-Jan-20 19:33 41.754674 -109.194083 317 29924ft 439kts
09-Jan-20 19:34 41.849340 -109.297532 318 29926ft 437kts
09-Jan-20 19:35 41.942812 -109.400016 318 29925ft 436kts
09-Jan-20 19:36 42.036757 -109.503524 319 29914ft 434kts
09-Jan-20 19:37 42.126426 -109.602632 319 29902ft 432kts
09-Jan-20 19:38 42.216410 -109.702468 318 29900ft 431kts
09-Jan-20 19:39 42.309352 -109.806002 318 29909ft 432kts
09-Jan-20 19:40 42.410064 -109.891111 343 29924ft 442kts
09-Jan-20 19:41 42.527407 -109.927240 344 29922ft 441kts
09-Jan-20 19:42 42.646875 -109.963888 345 29141ft 443kts
09-Jan-20 19:43 42.767957 -109.995861 344 28177ft 439kts
09-Jan-20 19:44 42.880233 -110.030588 344 27271ft 426kts
09-Jan-20 19:45 42.995888 -110.067079 344 26294ft 422kts
09-Jan-20 19:46 43.109083 -110.102991 343 24978ft 411kts
09-Jan-20 19:47 43.215407 -110.136844 343 23123ft 394kts
09-Jan-20 19:48 43.319549 -110.170131 343 21146ft 380kts
09-Jan-20 19:49 43.419132 -110.202069 343 19179ft 369kts
09-Jan-20 19:50 43.517636 -110.233772 343 17207ft 357kts
09-Jan-20 19:51 43.613439 -110.264720 343 15408ft 342kts
09-Jan-20 19:52 43.700620 -110.292976 343 14742ft 299kts
09-Jan-20 19:53 43.776178 -110.317526 342 14285ft 258kts
09-Jan-20 19:54 43.826133 -110.370006 269 13611ft 240kts
09-Jan-20 19:55 43.819536 -110.461713 264 12331ft 239kts
09-Jan-20 19:56 43.807567 -110.551413 245 11085ft 235kts
09-Jan-20 19:57 43.781307 -110.622655 225 10380ft 188kts
09-Jan-20 19:58 43.742943 -110.664460 219 9438ft 166kts
09-Jan-20 19:59 43.703872 -110.690528 200 8583ft 154kts
09-Jan-20 20:00 43.664713 -110.709722 198 7764ft 141kts
09-Jan-20 20:01 43.628214 -110.727622 198 6758ft 138kts
09-Jan-20 20:02 43.604540 -110.739120 198 6460ft 14kts
09-Jan-20 20:03 43.603704 -110.737957 105 6460ft 1kts
09-Jan-20 20:04 43.603469 -110.737008 109 6460ft 0kts
09-Jan-20 20:05 43.603487 -110.737076 109 6460ft 0kts
09-Jan-20 20:06 43.603487 -110.737076 109 6460ft 0kts
09-Jan-20 20:07 43.603487 -110.737076 109 6460ft 0kts

Navigation Log

Ident Type
Flight plan parsing failed, navigation log unavailable